TimeEST,TemperatureF,Dew PointF,Humidity,Sea Level PressureIn,VisibilityMPH,Wind Direction,Wind SpeedMPH,Gust SpeedMPH,PrecipitationIn,Events,Conditions,WindDirDegrees,DateUTC
12:35 AM,37.4,35.6,93,30.09,5.0,Calm,Calm,-,N/A,,Clear,0,2012-12-28 05:35:00
12:55 AM,37.4,35.6,93,30.09,7.0,Calm,Calm,-,N/A,,Clear,0,2012-12-28 05:55:00
1:15 AM,35.6,35.6,100,30.09,7.0,Calm,Calm,-,N/A,,Clear,0,2012-12-28 06:15:00
1:35 AM,37.4,35.6,93,30.10,5.0,Calm,Calm,-,N/A,,Clear,0,2012-12-28 06:35:00
1:55 AM,35.6,35.6,100,30.10,7.0,Calm,Calm,-,N/A,,Clear,0,2012-12-28 06:55:00
2:15 AM,35.6,33.8,93,30.10,5.0,Calm,Calm,-,N/A,,Clear,0,2012-12-28 07:15:00
2:35 AM,35.6,35.6,100,30.11,5.0,Calm,Calm,-,N/A,,Clear,0,2012-12-28 07:35:00
2:55 AM,35.6,35.6,100,30.10,5.0,Calm,Calm,-,N/A,,Clear,0,2012-12-28 07:55:00
3:15 AM,35.6,35.6,100,30.11,4.0,Calm,Calm,-,N/A,,Clear,0,2012-12-28 08:15:00
3:35 AM,35.6,33.8,93,30.11,5.0,Calm,Calm,-,N/A,,Clear,0,2012-12-28 08:35:00
3:55 AM,35.6,33.8,93,30.11,5.0,Calm,Calm,-,N/A,,Clear,0,2012-12-28 08:55:00
4:15 AM,35.6,33.8,93,30.12,7.0,Calm,Calm,-,N/A,,Clear,0,2012-12-28 09:15:00
4:35 AM,35.6,33.8,93,30.11,5.0,Calm,Calm,-,N/A,,Clear,0,2012-12-28 09:35:00
4:55 AM,35.6,33.8,93,30.11,7.0,Calm,Calm,-,N/A,,Clear,0,2012-12-28 09:55:00
5:15 AM,35.6,33.8,93,30.11,5.0,Calm,Calm,-,N/A,,Clear,0,2012-12-28 10:15:00
5:35 AM,35.6,33.8,93,30.10,5.0,Calm,Calm,-,N/A,,Clear,0,2012-12-28 10:35:00
6:35 AM,35.6,35.6,100,30.12,7.0,Calm,Calm,-,N/A,,Clear,0,2012-12-28 11:35:00
6:55 AM,35.6,35.6,100,30.12,7.0,Calm,Calm,-,N/A,,Clear,0,2012-12-28 11:55:00
7:35 AM,35.6,35.6,100,30.12,5.0,Calm,Calm,-,N/A,,Clear,0,2012-12-28 12:35:00
7:55 AM,37.4,35.6,93,30.12,3.0,East,3.5,-,N/A,,Clear,90,2012-12-28 12:55:00
8:15 AM,37.4,37.4,100,30.11,7.0,Calm,Calm,-,N/A,,Clear,0,2012-12-28 13:15:00
8:35 AM,37.4,37.4,100,30.12,7.0,Calm,Calm,-,N/A,,Clear,0,2012-12-28 13:35:00
8:55 AM,39.2,37.4,93,30.12,7.0,Calm,Calm,-,N/A,,Clear,0,2012-12-28 13:55:00
9:15 AM,41.0,37.4,87,30.12,10.0,ESE,4.6,-,N/A,,Clear,120,2012-12-28 14:15:00
9:35 AM,41.0,37.4,87,30.10,10.0,ESE,6.9,-,N/A,,Clear,120,2012-12-28 14:35:00
9:55 AM,42.8,39.2,87,30.11,10.0,Calm,Calm,-,N/A,,Clear,0,2012-12-28 14:55:00
10:15 AM,44.6,41.0,87,30.12,10.0,Calm,Calm,-,N/A,,Clear,0,2012-12-28 15:15:00
10:35 AM,46.4,41.0,81,30.11,10.0,SE,5.8,-,N/A,,Clear,140,2012-12-28 15:35:00
10:55 AM,46.4,41.0,81,30.10,10.0,SE,5.8,-,N/A,,Clear,140,2012-12-28 15:55:00
11:15 AM,48.2,41.0,76,30.08,10.0,SE,5.8,-,N/A,,Clear,130,2012-12-28 16:15:00
11:35 AM,48.2,41.0,76,30.08,10.0,SE,5.8,-,N/A,,Clear,140,2012-12-28 16:35:00
11:55 AM,50.0,41.0,71,30.06,10.0,SE,4.6,-,N/A,,Clear,130,2012-12-28 16:55:00
12:15 PM,50.0,41.0,71,30.05,10.0,SE,5.8,-,N/A,,Clear,140,2012-12-28 17:15:00
12:35 PM,51.8,41.0,67,30.05,10.0,Calm,Calm,-,N/A,,Clear,0,2012-12-28 17:35:00
12:55 PM,51.8,41.0,67,30.03,10.0,ESE,3.5,-,N/A,,Clear,120,2012-12-28 17:55:00
1:15 PM,53.6,41.0,62,30.03,10.0,Calm,Calm,-,N/A,,Clear,0,2012-12-28 18:15:00
1:35 PM,55.4,41.0,58,30.01,10.0,Calm,Calm,-,N/A,,Clear,0,2012-12-28 18:35:00
1:55 PM,55.4,41.0,58,30.01,10.0,Calm,Calm,-,N/A,,Scattered Clouds,0,2012-12-28 18:55:00
2:15 PM,55.4,41.0,58,29.98,10.0,ESE,3.5,-,N/A,,Overcast,110,2012-12-28 19:15:00
2:35 PM,59.0,41.0,51,29.99,10.0,North,3.5,-,N/A,,Mostly Cloudy,10,2012-12-28 19:35:00
2:55 PM,59.0,41.0,51,29.99,10.0,ESE,3.5,-,N/A,,Mostly Cloudy,120,2012-12-28 19:55:00
3:15 PM,59.0,41.0,51,29.99,10.0,ENE,3.5,-,N/A,,Overcast,60,2012-12-28 20:15:00
3:35 PM,59.0,41.0,51,29.98,10.0,Calm,Calm,-,N/A,,Overcast,0,2012-12-28 20:35:00
3:55 PM,59.0,41.0,51,29.99,10.0,Calm,Calm,-,N/A,,Mostly Cloudy,0,2012-12-28 20:55:00
4:15 PM,59.0,41.0,51,29.99,10.0,East,4.6,-,N/A,,Mostly Cloudy,90,2012-12-28 21:15:00
4:35 PM,57.2,41.0,55,29.99,10.0,East,3.5,-,N/A,,Mostly Cloudy,80,2012-12-28 21:35:00
4:55 PM,57.2,42.8,59,30.00,10.0,Calm,Calm,-,N/A,,Overcast,0,2012-12-28 21:55:00
5:35 PM,55.4,42.8,63,29.98,10.0,ENE,3.5,-,N/A,,Scattered Clouds,60,2012-12-28 22:35:00
5:55 PM,53.6,44.6,72,29.98,10.0,Calm,Calm,-,N/A,,Mostly Cloudy,0,2012-12-28 22:55:00
6:15 PM,53.6,44.6,72,29.97,10.0,Calm,Calm,-,N/A,,Scattered Clouds,0,2012-12-28 23:15:00
6:35 PM,51.8,44.6,76,29.98,10.0,Calm,Calm,-,N/A,,Clear,0,2012-12-28 23:35:00
6:55 PM,51.8,44.6,76,29.97,10.0,Calm,Calm,-,N/A,,Clear,0,2012-12-28 23:55:00
7:15 PM,51.8,44.6,76,29.97,10.0,Calm,Calm,-,N/A,,Mostly Cloudy,0,2012-12-29 00:15:00
7:35 PM,51.8,44.6,76,29.97,10.0,Calm,Calm,-,N/A,,Overcast,0,2012-12-29 00:35:00
7:55 PM,53.6,44.6,72,29.97,10.0,Calm,Calm,-,N/A,,Overcast,0,2012-12-29 00:55:00
8:15 PM,53.6,44.6,72,29.95,10.0,Calm,Calm,-,N/A,,Overcast,0,2012-12-29 01:15:00
8:35 PM,53.6,44.6,72,29.94,10.0,East,3.5,-,N/A,,Mostly Cloudy,100,2012-12-29 01:35:00
8:55 PM,53.6,44.6,72,29.93,10.0,ESE,4.6,-,N/A,,Scattered Clouds,110,2012-12-29 01:55:00
9:15 PM,53.6,44.6,72,29.93,10.0,Calm,Calm,-,N/A,,Scattered Clouds,0,2012-12-29 02:15:00
9:35 PM,53.6,44.6,72,29.92,10.0,ESE,3.5,-,N/A,,Clear,110,2012-12-29 02:35:00
9:55 PM,53.6,44.6,72,29.91,10.0,ESE,3.5,-,N/A,,Scattered Clouds,120,2012-12-29 02:55:00
10:15 PM,53.6,44.6,72,29.90,10.0,Calm,Calm,-,N/A,,Scattered Clouds,0,2012-12-29 03:15:00
10:35 PM,53.6,44.6,72,29.90,10.0,Calm,Calm,-,N/A,,Mostly Cloudy,0,2012-12-29 03:35:00
10:55 PM,53.6,44.6,72,29.89,10.0,ESE,5.8,-,N/A,,Mostly Cloudy,120,2012-12-29 03:55:00
11:15 PM,53.6,44.6,72,29.88,10.0,SE,5.8,-,N/A,,Scattered Clouds,130,2012-12-29 04:15:00
11:35 PM,53.6,44.6,72,29.85,10.0,SE,8.1,-,N/A,,Clear,130,2012-12-29 04:35:00
11:55 PM,55.4,44.6,67,29.85,10.0,SE,6.9,-,N/A,,Scattered Clouds,140,2012-12-29 04:55:00